Terminal Aerodrome Forecast
Issued by NWS

Home | Current Version | Previous Version | Text Only | Print | Product List | Glossary On
Versions: 1 2 3 4 5 6 7 8 9 10 11 12 13 14 15 16 17 18 19
363
FTUS46 KSEW 242328
TAFPAE
TAF
KPAE 242328Z 2500/2524 VRB05KT P6SM FEW045 BKN110 BKN200
     FM250200 VRB03KT P6SM BKN110 OVC200
     FM250900 VRB03KT P6SM SCT050 OVC100
     FM251200 17005KT P6SM SCT007 BKN050 OVC100
      TEMPO 2514/2518 BKN007 OVC050
     FM251800 20007KT P6SM BKN012 OVC050 PROB30 2518/2524 -RA=

USA.gov is the U.S. government's official web portal to all federal, state and local government web resources and services.